Time;durP1;ratioP1;P1;durP2;ratioP2;P2;SDS_P1;SDS_P2;PMS_P1;PMS_P2;Temp;Humidity;BMP_temperature;BMP_pressure;BME280_temperature;BME280_humidity;BME280_pressure;Samples;Min_cycle;Max_cycle;Signal;HPM_P1;HPM_P2
2022/10/30 00:00:34;;;;;;;1999.90;999.90;;;;;;;11.99;100.00;100991.75;5024647;28;20042;-72
2022/10/30 00:03:00;;;;;;;1999.90;999.90;;;;;;;12.02;100.00;100986.44;5024592;28;20044;-73
2022/10/30 00:05:25;;;;;;;1999.90;999.90;;;;;;;12.05;100.00;100981.16;5022532;28;20472;-72
2022/10/30 00:07:53;;;;;;;1999.90;999.90;;;;;;;12.03;100.00;100982.06;5025238;28;20538;-73
2022/10/30 00:10:18;;;;;;;1999.90;999.90;;;;;;;12.04;100.00;100978.50;5027031;28;20100;-77
2022/10/30 00:12:44;;;;;;;1999.90;999.90;;;;;;;12.06;100.00;100972.31;5018590;28;20065;-72
2022/10/30 00:15:10;;;;;;;1999.90;999.90;;;;;;;12.09;100.00;100968.78;5022455;28;20024;-72
2022/10/30 00:17:35;;;;;;;1999.90;999.90;;;;;;;12.13;100.00;100972.28;5022525;28;20038;-72
2022/10/30 00:20:00;;;;;;;1999.90;999.90;;;;;;;12.14;100.00;100961.72;5020093;28;20400;-72
2022/10/30 00:22:26;;;;;;;1999.90;999.90;;;;;;;12.19;100.00;100962.56;5020626;28;20040;-72
2022/10/30 00:24:51;;;;;;;1999.90;999.90;;;;;;;12.19;100.00;100957.28;5020126;28;20117;-71
2022/10/30 00:27:16;;;;;;;1999.90;999.90;;;;;;;12.25;100.00;100954.56;5020100;28;20080;-72
2022/10/30 00:29:42;;;;;;;1999.90;999.90;;;;;;;12.28;100.00;100961.63;5019683;28;20092;-72
2022/10/30 00:32:07;;;;;;;1999.90;999.90;;;;;;;12.24;100.00;100958.13;5017612;28;20044;-72
2022/10/30 00:34:32;;;;;;;1999.90;999.90;;;;;;;12.30;100.00;100951.03;5021025;28;20065;-72
2022/10/30 00:36:58;;;;;;;1999.90;999.90;;;;;;;12.37;100.00;100950.13;5018716;28;20037;-72
2022/10/30 00:39:23;;;;;;;1999.90;999.90;;;;;;;12.34;100.00;100955.41;5018691;28;20033;-72
2022/10/30 00:41:48;;;;;;;1999.90;999.90;;;;;;;12.33;100.00;100957.19;5009383;28;20045;-72
2022/10/30 00:44:42;;;;;;;1999.90;999.90;;;;;;;12.32;100.00;100959.84;5015086;28;20132;-72
2022/10/30 00:47:17;;;;;;;1999.90;999.90;;;;;;;12.37;100.00;100952.75;5012256;28;20126;-72
2022/10/30 00:49:52;;;;;;;1999.90;999.90;;;;;;;12.42;100.00;100958.91;5017317;28;20030;-72
2022/10/30 00:52:20;;;;;;;1999.90;999.90;;;;;;;12.44;100.00;100955.34;5020258;28;20049;-72
2022/10/30 00:54:45;;;;;;;1999.90;999.90;;;;;;;12.50;100.00;100951.78;5018391;28;20030;-72
2022/10/30 00:57:12;;;;;;;1999.90;999.90;;;;;;;12.57;100.00;100950.81;5017790;28;20030;-72
2022/10/30 00:59:38;;;;;;;1999.90;999.90;;;;;;;12.60;100.00;100948.19;5019818;28;20420;-72
2022/10/30 01:02:05;;;;;;;1999.90;999.90;;;;;;;12.58;100.00;100941.13;5018406;28;20091;-72
2022/10/30 01:04:35;;;;;;;1999.90;999.90;;;;;;;12.59;100.00;100943.75;5009622;28;20033;-72
2022/10/30 01:07:08;;;;;;;1999.90;999.90;;;;;;;12.60;100.00;100936.69;5006688;28;20054;-72
2022/10/30 01:09:34;;;;;;;1999.90;999.90;;;;;;;12.58;100.00;100947.31;5002736;28;20125;-72
2022/10/30 01:11:59;;;;;;;1999.90;999.90;;;;;;;12.55;100.00;100949.97;5006464;28;20026;-72
2022/10/30 01:14:25;;;;;;;1999.90;999.90;;;;;;;12.48;100.00;100942.97;5008391;28;20075;-72
2022/10/30 01:17:21;;;;;;;1999.90;999.90;;;;;;;12.38;100.00;100941.28;5006137;28;20124;-72
2022/10/30 01:20:02;;;;;;;1999.90;999.90;;;;;;;12.32;100.00;100936.03;5007564;28;20117;-72
2022/10/30 01:22:47;;;;;;;1999.90;999.90;;;;;;;12.31;100.00;100934.25;5016733;28;20060;-72
2022/10/30 01:25:55;;;;;;;1999.90;999.90;;;;;;;12.30;100.00;100929.88;5020172;28;20037;-72
2022/10/30 01:28:41;;;;;;;1999.90;999.90;;;;;;;12.31;100.00;100931.59;5012242;28;20030;-72
2022/10/30 01:31:14;;;;;;;1999.90;999.90;;;;;;;12.36;100.00;100927.16;5017084;28;20026;-72
2022/10/30 01:33:54;;;;;;;1999.90;999.90;;;;;;;12.35;100.00;100921.00;5018708;28;20045;-72
2022/10/30 01:36:29;;;;;;;1999.90;999.90;;;;;;;12.41;100.00;100920.06;5017201;28;20288;-72
2022/10/30 01:39:14;;;;;;;1999.90;999.90;;;;;;;12.45;100.00;100912.09;5023968;28;20041;-72
2022/10/30 01:41:40;;;;;;;1999.90;999.90;;;;;;;12.46;100.00;100911.19;5011259;28;20030;-72
2022/10/30 01:44:11;;;;;;;1999.90;999.90;;;;;;;12.43;100.00;100907.69;5011196;28;20029;-72
2022/10/30 01:46:59;;;;;;;1999.90;999.90;;;;;;;12.45;100.00;100903.28;5001160;28;20180;-72
2022/10/30 01:49:55;;;;;;;1999.90;999.90;;;;;;;12.47;100.00;100902.38;5016511;28;20034;-72
2022/10/30 01:52:32;;;;;;;1999.90;999.90;;;;;;;12.48;100.00;100903.25;5017796;28;20040;-73
2022/10/30 01:55:09;;;;;;;1999.90;999.90;;;;;;;12.47;100.00;100898.84;5016564;28;20026;-73
2022/10/30 01:57:58;;;;;;;1999.90;999.90;;;;;;;12.44;100.00;100909.44;5016567;28;20076;-73
2022/10/30 02:00:24;;;;;;;1999.90;999.90;;;;;;;12.43;100.00;100903.28;5010625;28;20030;-73
2022/10/30 02:02:50;;;;;;;1999.90;999.90;;;;;;;12.42;100.00;100905.97;5021192;28;20453;-73
2022/10/30 02:05:39;;;;;;;1999.90;999.90;;;;;;;12.42;100.00;100900.66;5003023;28;20034;-73
2022/10/30 02:08:05;;;;;;;1999.90;999.90;;;;;;;12.40;100.00;100907.72;5021744;28;20034;-73
2022/10/30 02:10:35;;;;;;;1999.90;999.90;;;;;;;12.39;100.00;100903.31;5016937;28;20385;-73
2022/10/30 02:13:01;;;;;;;1999.90;999.90;;;;;;;12.39;100.00;100898.91;5022071;28;20036;-73
2022/10/30 02:15:28;;;;;;;1999.90;999.90;;;;;;;12.38;100.00;100909.50;5020048;28;20499;-73
2022/10/30 02:17:55;;;;;;;1999.90;999.90;;;;;;;12.37;100.00;100907.75;5021386;28;20080;-73
2022/10/30 02:20:20;;;;;;;1999.90;999.90;;;;;;;12.33;100.00;100906.00;5020102;28;20065;-73
2022/10/30 02:22:46;;;;;;;1999.90;999.90;;;;;;;12.31;100.00;100907.78;4999498;28;20091;-73
2022/10/30 02:25:12;;;;;;;1999.90;999.90;;;;;;;12.29;100.00;100907.81;5019165;28;20056;-73
2022/10/30 02:27:38;;;;;;;1999.90;999.90;;;;;;;12.31;100.00;100902.50;5020443;28;20037;-73
2022/10/30 02:30:03;;;;;;;1999.90;999.90;;;;;;;12.34;100.00;100907.75;5000895;28;20488;-73
2022/10/30 02:32:29;;;;;;;1999.90;999.90;;;;;;;12.35;100.00;100907.75;5006653;28;20112;-73
2022/10/30 02:34:54;;;;;;;1999.90;999.90;;;;;;;12.39;100.00;100900.66;5019991;28;20034;-73
2022/10/30 02:37:20;;;;;;;1999.90;999.90;;;;;;;12.43;100.00;100903.28;4999691;28;20044;-73
2022/10/30 02:39:45;;;;;;;1999.90;999.90;;;;;;;12.45;100.00;100908.56;5022342;28;20022;-73
2022/10/30 02:42:11;;;;;;;1999.90;999.90;;;;;;;12.48;100.00;100905.91;5020893;28;20500;-73
2022/10/30 02:44:36;;;;;;;1999.90;999.90;;;;;;;12.49;100.00;100912.94;5019873;28;20389;-73
2022/10/30 02:47:02;;;;;;;1999.90;999.90;;;;;;;12.47;100.00;100902.38;5021855;28;20044;-73
2022/10/30 02:49:27;;;;;;;1999.90;999.90;;;;;;;12.52;100.00;100907.63;5016933;28;20044;-73
2022/10/30 02:51:52;;;;;;;1999.90;999.90;;;;;;;12.55;100.00;100907.63;5022939;28;20040;-73
2022/10/30 02:54:17;;;;;;;1999.90;999.90;;;;;;;12.59;100.00;100904.03;5003109;28;20034;-73
2022/10/30 02:56:43;;;;;;;1999.90;999.90;;;;;;;12.62;100.00;100904.00;5020545;28;20114;-72
2022/10/30 02:59:08;;;;;;;1999.90;999.90;;;;;;;12.63;100.00;100905.78;5004352;28;20037;-73
2022/10/30 03:01:35;;;;;;;1999.90;999.90;;;;;;;12.68;100.00;100906.63;5019404;28;20033;-72
2022/10/30 03:04:01;;;;;;;1999.90;999.90;;;;;;;12.75;100.00;100901.25;5002271;28;20451;-73
2022/10/30 03:06:27;;;;;;;1999.90;999.90;;;;;;;12.80;100.00;100899.44;5022590;28;20137;-73
2022/10/30 03:08:52;;;;;;;1999.90;999.90;;;;;;;12.84;100.00;100898.53;5023026;28;20038;-73
2022/10/30 03:11:19;;;;;;;1999.90;999.90;;;;;;;12.85;100.00;100892.34;5026010;28;20048;-74
2022/10/30 03:13:46;;;;;;;1999.90;999.90;;;;;;;12.87;100.00;100895.84;5023693;28;20053;-73
2022/10/30 03:16:17;;;;;;;1999.90;999.90;;;;;;;12.89;100.00;100907.28;5024322;28;20493;-73
2022/10/30 03:18:43;;;;;;;1999.90;999.90;;;;;;;12.72;100.00;100923.34;5023113;28;20396;-73
2022/10/30 03:21:12;;;;;;;1999.90;999.90;;;;;;;12.62;100.00;100906.66;5025495;28;20038;-73
2022/10/30 03:23:38;;;;;;;1999.90;999.90;;;;;;;12.63;100.00;100889.91;5024923;28;20045;-73
2022/10/30 03:26:04;;;;;;;1999.90;999.90;;;;;;;12.53;100.00;100890.84;5008496;28;20029;-73
2022/10/30 03:28:34;;;;;;;1999.90;999.90;;;;;;;12.53;100.00;100882.91;5023224;28;20034;-73
2022/10/30 03:31:10;;;;;;;1999.90;999.90;;;;;;;12.56;100.00;100889.97;5025072;28;20419;-73
2022/10/30 03:33:38;;;;;;;1999.90;999.90;;;;;;;12.55;100.00;100883.78;5025856;28;20038;-73
2022/10/30 03:36:06;;;;;;;1999.90;999.90;;;;;;;12.56;100.00;100892.59;5022927;28;20515;-73
2022/10/30 03:38:32;;;;;;;1999.90;999.90;;;;;;;12.57;100.00;100897.00;5022215;28;20048;-72
2022/10/30 03:40:57;;;;;;;1999.90;999.90;;;;;;;12.48;100.00;100887.38;5022484;28;20041;-73
2022/10/30 03:43:23;;;;;;;1999.90;999.90;;;;;;;12.40;100.00;100884.78;5023449;28;20037;-73
2022/10/30 03:45:52;;;;;;;1999.90;999.90;;;;;;;12.35;100.00;100877.78;5008342;28;20048;-73
2022/10/30 03:48:19;;;;;;;1999.90;999.90;;;;;;;12.38;100.00;100878.63;5036121;22;20144;-75
2022/10/30 03:50:45;;;;;;;1999.90;999.90;;;;;;;12.44;100.00;100867.09;5018542;28;20121;-74
2022/10/30 03:53:11;;;;;;;1999.90;999.90;;;;;;;12.46;100.00;100876.78;5004245;28;20072;-75
2022/10/30 03:55:38;;;;;;;1999.90;999.90;;;;;;;12.50;100.00;100872.34;5000433;28;20488;-75
2022/10/30 03:58:04;;;;;;;1999.90;999.90;;;;;;;12.44;100.00;100881.25;5012762;28;20116;-74
2022/10/30 04:00:30;;;;;;;1999.90;999.90;;;;;;;12.32;100.00;100886.63;5001944;28;20056;-75
2022/10/30 04:02:57;;;;;;;1999.90;999.90;;;;;;;12.31;100.00;100884.84;5001668;28;20030;-74
2022/10/30 04:05:25;;;;;;;1999.90;999.90;;;;;;;12.35;100.00;100875.13;5005243;28;20530;-75
2022/10/30 04:08:02;;;;;;;1999.90;999.90;;;;;;;12.37;100.00;100882.16;5002880;28;20029;-75
2022/10/30 04:10:30;;;;;;;1999.90;999.90;;;;;;;12.34;100.00;100886.59;5005454;28;20133;-74
2022/10/30 04:13:05;;;;;;;1999.90;999.90;;;;;;;12.32;100.00;100888.38;5003352;28;20057;-75
2022/10/30 04:15:31;;;;;;;;;;;;;;;12.27;100.00;100902.53;5007811;28;20058;-75
2022/10/30 04:17:57;;;;;;;1999.90;999.90;;;;;;;12.24;100.00;100897.25;5002337;28;20402;-75
2022/10/30 04:20:24;;;;;;;1999.90;999.90;;;;;;;12.30;100.00;100898.09;5004458;28;20038;-75
2022/10/30 04:22:55;;;;;;;1999.90;999.90;;;;;;;12.32;100.00;100896.34;4999164;28;20038;-75
2022/10/30 04:25:21;;;;;;;1999.90;999.90;;;;;;;12.32;100.00;100893.69;5004793;28;20038;-75
2022/10/30 04:27:48;;;;;;;1999.90;999.90;;;;;;;12.33;100.00;100893.66;5002442;28;20058;-75
2022/10/30 04:30:16;;;;;;;1999.90;999.90;;;;;;;12.31;100.00;100891.91;5004026;28;20137;-75
2022/10/30 04:32:46;;;;;;;1999.90;999.90;;;;;;;12.37;100.00;100876.00;5003477;28;20034;-75
2022/10/30 04:35:11;;;;;;;1999.90;999.90;;;;;;;12.39;100.00;100874.19;5004367;28;20045;-75
2022/10/30 04:37:37;;;;;;;1999.90;999.90;;;;;;;12.30;100.00;100876.94;5012322;28;20496;-75
2022/10/30 04:40:02;;;;;;;1999.90;999.90;;;;;;;12.19;100.00;100877.88;5000842;28;20093;-75
2022/10/30 04:42:35;;;;;;;1999.90;999.90;;;;;;;12.11;100.00;100869.13;5001975;28;20044;-74
2022/10/30 04:45:01;;;;;;;1999.90;999.90;;;;;;;12.06;100.00;100863.88;5002514;28;20029;-74
2022/10/30 04:47:27;;;;;;;1999.90;999.90;;;;;;;12.03;100.00;100863.03;4999678;28;20034;-75
2022/10/30 04:49:52;;;;;;;1999.90;999.90;;;;;;;11.99;100.00;100858.63;5004764;28;20858;-75
2022/10/30 04:52:17;;;;;;;1999.90;999.90;;;;;;;11.94;100.00;100857.78;4999661;28;20069;-75
2022/10/30 04:54:43;;;;;;;1999.90;999.90;;;;;;;11.89;100.00;100863.09;5003553;28;20029;-74
2022/10/30 04:57:10;;;;;;;1999.90;999.90;;;;;;;11.83;100.00;100856.03;4987492;28;20034;-74
2022/10/30 04:59:36;;;;;;;1999.90;999.90;;;;;;;11.75;100.00;100867.56;5011296;28;20042;-75
2022/10/30 05:02:01;;;;;;;1999.90;999.90;;;;;;;11.60;100.00;100855.28;5001518;28;20464;-75
2022/10/30 05:04:27;;;;;;;1999.90;999.90;;;;;;;11.58;100.00;100854.41;4999928;28;20185;-75
2022/10/30 05:06:52;;;;;;;1999.90;999.90;;;;;;;11.58;100.00;100846.47;5005603;28;20034;-75
2022/10/30 05:09:17;;;;;;;1999.90;999.90;;;;;;;11.59;100.00;100843.84;5003594;28;20031;-74
2022/10/30 05:11:43;;;;;;;1999.90;999.90;;;;;;;11.61;100.00;100855.28;5007525;28;20562;-74
2022/10/30 05:14:08;;;;;;;1999.90;999.90;;;;;;;11.61;100.00;100851.78;5004720;28;20517;-75
2022/10/30 05:16:33;;;;;;;1999.90;999.90;;;;;;;11.57;100.00;100842.97;5008618;28;20029;-75
2022/10/30 05:19:01;;;;;;;1999.90;999.90;;;;;;;11.53;100.00;100840.38;5006247;28;20465;-75
2022/10/30 05:21:27;;;;;;;1999.90;999.90;;;;;;;11.50;100.00;100837.72;5009300;28;20025;-75
2022/10/30 05:23:52;;;;;;;1999.90;999.90;;;;;;;11.49;100.00;100841.25;5011113;28;20778;-75
2022/10/30 05:26:18;;;;;;;1999.90;999.90;;;;;;;11.47;100.00;100848.31;5010952;28;20411;-75
2022/10/30 05:28:43;;;;;;;1999.90;999.90;;;;;;;11.43;100.00;100850.09;5005564;28;20465;-75
2022/10/30 05:31:09;;;;;;;1999.90;999.90;;;;;;;11.40;100.00;100855.41;5002597;28;20042;-75
2022/10/30 05:34:00;;;;;;;1999.90;999.90;;;;;;;11.36;100.00;100851.88;4976886;28;20389;-75
2022/10/30 05:36:26;;;;;;;1999.90;999.90;;;;;;;11.31;100.00;100853.66;5009900;28;20087;-75
2022/10/30 05:38:51;;;;;;;1999.90;999.90;;;;;;;11.29;100.00;100855.44;5001441;28;20037;-75
2022/10/30 05:41:28;;;;;;;1999.90;999.90;;;;;;;11.22;100.00;100858.13;5008485;28;20032;-76
2022/10/30 05:43:54;;;;;;;1999.90;999.90;;;;;;;11.17;100.00;100866.06;5001853;28;20540;-75
2022/10/30 05:46:19;;;;;;;1999.90;999.90;;;;;;;11.16;100.00;100862.53;5000150;28;20038;-75
2022/10/30 05:48:45;;;;;;;1999.90;999.90;;;;;;;11.12;100.00;100867.81;5009952;28;20037;-75
2022/10/30 05:51:11;;;;;;;1999.90;999.90;;;;;;;11.08;100.00;100876.63;5008887;28;20669;-75
2022/10/30 05:53:41;;;;;;;1999.90;999.90;;;;;;;11.13;100.00;100875.75;5007992;28;20053;-75
2022/10/30 05:56:07;;;;;;;1999.90;999.90;;;;;;;11.16;100.00;100875.75;5006303;28;20076;-75
2022/10/30 05:58:34;;;;;;;1999.90;999.90;;;;;;;11.25;100.00;100880.13;5007791;28;20056;-75
2022/10/30 06:01:06;;;;;;;1999.90;999.90;;;;;;;11.31;100.00;100869.50;5007600;28;20504;-75
2022/10/30 06:03:42;;;;;;;1999.90;999.90;;;;;;;11.36;100.00;100873.00;5001923;28;20412;-75
2022/10/30 06:06:08;;;;;;;1999.90;999.90;;;;;;;11.42;100.00;100874.75;5008481;28;20034;-76
2022/10/30 06:08:34;;;;;;;1999.90;999.90;;;;;;;11.47;100.00;100877.38;5012498;28;20509;-75
2022/10/30 06:11:05;;;;;;;1999.90;999.90;;;;;;;11.52;100.00;100884.41;5012221;28;20030;-76
2022/10/30 06:13:36;;;;;;;1999.90;999.90;;;;;;;11.59;100.00;100883.50;5010421;28;20484;-76
2022/10/30 06:16:07;;;;;;;1999.90;999.90;;;;;;;11.65;100.00;100884.34;5009894;28;20022;-76
2022/10/30 06:19:02;;;;;;;1999.90;999.90;;;;;;;11.69;100.00;100870.25;5009298;28;20419;-76
2022/10/30 06:21:29;;;;;;;1999.90;999.90;;;;;;;11.77;100.00;100873.72;5008623;28;20057;-76
2022/10/30 06:24:07;;;;;;;1999.90;999.90;;;;;;;11.82;100.00;100888.66;5009601;28;20037;-76
2022/10/30 06:26:55;;;;;;;1999.90;999.90;;;;;;;11.69;100.00;100892.28;5009152;28;20079;-76
2022/10/30 06:29:21;;;;;;;1999.90;999.90;;;;;;;11.80;100.00;100874.56;5007044;28;20400;-76
2022/10/30 06:31:47;;;;;;;1999.90;999.90;;;;;;;11.80;100.00;100898.38;5000685;28;20036;-76
2022/10/30 06:34:12;;;;;;;1999.90;999.90;;;;;;;11.70;100.00;100899.31;4998877;28;20033;-76
2022/10/30 06:36:40;;;;;;;1999.90;999.90;;;;;;;11.76;100.00;100895.75;5003428;28;20825;-76
2022/10/30 06:39:05;;;;;;;1999.90;999.90;;;;;;;11.95;100.00;100891.28;5003233;28;20030;-76
2022/10/30 06:41:38;;;;;;;1999.90;999.90;;;;;;;12.15;100.00;100893.78;5004662;28;20515;-76
2022/10/30 06:44:17;;;;;;;1999.90;999.90;;;;;;;12.27;100.00;100896.34;5005672;28;20038;-76
2022/10/30 06:46:42;;;;;;;1999.90;999.90;;;;;;;12.35;100.00;100898.94;5005567;28;20026;-76
2022/10/30 06:49:08;;;;;;;1999.90;999.90;;;;;;;12.39;100.00;100900.66;5008133;28;20440;-76
2022/10/30 06:51:33;;;;;;;1999.90;999.90;;;;;;;12.47;100.00;100905.03;5007220;28;20574;-76
2022/10/30 06:53:59;;;;;;;1999.90;999.90;;;;;;;12.63;100.00;100894.31;5005478;28;20033;-76
2022/10/30 06:56:36;;;;;;;1999.90;999.90;;;;;;;12.76;100.00;100879.16;5003071;28;20511;-76
2022/10/30 06:59:20;;;;;;;1999.90;999.90;;;;;;;12.87;100.00;100882.59;5006883;28;20048;-73
2022/10/30 07:02:04;;;;;;;1999.90;999.90;;;;;;;13.01;100.00;100879.81;5005474;28;20480;-74
2022/10/30 07:04:42;;;;;;;1999.90;999.90;;;;;;;13.10;100.00;100887.69;5007644;28;20030;-73
2022/10/30 07:07:07;;;;;;;1999.90;999.90;;;;;;;13.17;100.00;100889.34;5006485;28;20038;-73
2022/10/30 07:09:33;;;;;;;1999.90;999.90;;;;;;;13.17;100.00;100899.94;5001268;28;20025;-74
2022/10/30 07:11:58;;;;;;;1999.90;999.90;;;;;;;13.20;100.00;100896.38;4999619;28;20039;-73
2022/10/30 07:14:33;;;;;;;1999.90;999.90;;;;;;;13.31;100.00;100894.53;5003633;28;20440;-74
2022/10/30 07:17:09;;;;;;;1999.90;999.90;;;;;;;13.45;100.00;100887.28;5009049;28;20076;-74
2022/10/30 07:19:36;;;;;;;1999.90;999.90;;;;;;;13.56;100.00;100890.66;5005526;28;20032;-74
2022/10/30 07:22:03;;;;;;;1999.90;999.90;;;;;;;13.58;100.00;100888.88;5007744;28;20053;-74
2022/10/30 07:24:29;;;;;;;1999.90;999.90;;;;;;;13.65;100.00;100891.44;5007603;28;20060;-73
2022/10/30 07:27:15;;;;;;;1999.90;999.90;;;;;;;13.70;100.00;100889.59;5004410;28;20037;-73
2022/10/30 07:29:48;;;;;;;1999.90;999.90;;;;;;;13.75;100.00;100886.03;5004439;28;20045;-73
2022/10/30 07:32:40;;;;;;;1999.90;999.90;;;;;;;13.77;100.00;100894.81;5000853;28;20070;-73
2022/10/30 07:35:18;;;;;;;1999.90;999.90;;;;;;;13.79;100.00;100894.81;5008536;28;20399;-73
2022/10/30 07:37:54;;;;;;;1999.90;999.90;;;;;;;13.84;100.00;100915.97;5007777;28;20038;-73
2022/10/30 07:40:26;;;;;;;1999.90;999.90;;;;;;;13.90;100.00;100905.28;5006983;28;20026;-73
2022/10/30 07:42:59;;;;;;;;;;;;;;;13.89;100.00;100899.09;5009810;28;20048;-73
2022/10/30 07:45:37;;;;;;;1999.90;999.90;;;;;;;13.97;100.00;100918.44;5007017;28;19917;-73
2022/10/30 07:48:22;;;;;;;1999.90;999.90;;;;;;;14.05;100.00;100898.88;5008314;28;20042;-73
2022/10/30 07:51:06;;;;;;;1999.90;999.90;;;;;;;14.09;100.00;100895.25;5007177;28;20048;-74
2022/10/30 07:53:32;;;;;;;1999.90;999.90;;;;;;;14.15;100.00;100904.03;5024753;28;20042;-73
2022/10/30 07:55:58;;;;;;;1999.90;999.90;;;;;;;14.17;100.00;100899.56;5010968;28;20034;-75
2022/10/30 07:58:42;;;;;;;1999.90;999.90;;;;;;;14.24;100.00;100900.34;5008563;28;20095;-74
2022/10/30 08:01:26;;;;;;;1999.90;999.90;;;;;;;14.26;100.00;100895.91;5009406;28;20048;-74
2022/10/30 08:03:53;;;;;;;1999.90;999.90;;;;;;;14.31;100.00;100901.13;5005921;28;20081;-73
2022/10/30 08:06:25;;;;;;;1999.90;999.90;;;;;;;14.33;100.00;100894.00;5004770;28;20037;-74
2022/10/30 08:08:51;;;;;;;1999.90;999.90;;;;;;;14.32;100.00;100884.28;5000084;28;20404;-74
2022/10/30 08:11:22;;;;;;;1999.90;999.90;;;;;;;14.32;100.00;100882.50;5003245;28;20034;-73
2022/10/30 08:13:47;;;;;;;1999.90;999.90;;;;;;;14.39;100.00;100893.94;5003623;28;20542;-74
2022/10/30 08:16:13;;;;;;;1999.90;999.90;;;;;;;14.44;100.00;100892.94;5002918;28;20575;-73
2022/10/30 08:18:41;;;;;;;1999.90;999.90;;;;;;;14.55;100.00;100903.41;5002137;28;20034;-73
2022/10/30 08:21:06;;;;;;;1999.90;999.90;;;;;;;14.66;100.00;100897.94;5000822;28;20049;-74
2022/10/30 08:23:31;;;;;;;1999.90;999.90;;;;;;;14.75;100.00;100892.47;5005683;28;20046;-74
2022/10/30 08:26:02;;;;;;;1999.90;999.90;;;;;;;14.83;100.00;100889.69;4998963;28;20034;-74
2022/10/30 08:28:31;;;;;;;1999.90;999.90;;;;;;;14.90;100.00;100883.31;5005216;28;20382;-73
2022/10/30 08:30:57;;;;;;;1999.90;999.90;;;;;;;14.96;100.00;100888.56;5007597;28;20041;-74
2022/10/30 08:33:40;;;;;;;1999.90;999.90;;;;;;;15.15;100.00;100890.84;5004939;28;20038;-74
2022/10/30 08:36:25;;;;;;;1999.90;999.90;;;;;;;15.29;100.00;100894.97;5004939;28;20112;-74
2022/10/30 08:38:51;;;;;;;1999.90;999.90;;;;;;;15.39;100.00;100878.84;5003427;28;20078;-74
2022/10/30 08:41:34;;;;;;;1999.90;999.90;;;;;;;15.53;100.00;100890.06;5003709;28;20128;-74
2022/10/30 08:43:59;;;;;;;1999.90;999.90;;;;;;;15.69;100.00;100888.91;5002232;28;20081;-74
2022/10/30 08:46:35;;;;;;;1999.90;999.90;;;;;;;15.87;100.00;100881.41;5000687;28;20122;-74
2022/10/30 08:49:00;;;;;;;1999.90;999.90;;;;;;;16.06;100.00;100882.75;5003342;28;20174;-74
2022/10/30 08:51:31;;;;;;;1999.90;999.90;;;;;;;16.21;100.00;100885.03;5002558;28;20113;-74
2022/10/30 08:53:57;;;;;;;1999.90;999.90;;;;;;;16.43;100.00;100892.53;5001416;28;20030;-74
2022/10/30 08:56:22;;;;;;;1999.90;999.90;;;;;;;16.61;100.00;100886.72;4999961;28;20042;-74
2022/10/30 08:58:59;;;;;;;1999.90;999.90;;;;;;;16.81;100.00;100882.69;5004482;28;20034;-74
2022/10/30 09:01:26;;;;;;;1999.90;999.90;;;;;;;16.96;99.08;100878.75;5004669;28;20030;-74
2022/10/30 09:04:09;;;;;;;1999.90;999.90;;;;;;;17.09;98.26;100882.84;5003216;28;20045;-74
2022/10/30 09:07:07;;;;;;;1999.90;999.90;;;;;;;17.26;96.21;100883.22;5000711;28;20402;-74
2022/10/30 09:09:51;;;;;;;1999.90;999.90;;;;;;;17.42;95.92;100870.34;5004170;28;20033;-74
2022/10/30 09:12:17;;;;;;;1999.90;999.90;;;;;;;17.52;94.75;100877.13;5002470;28;20113;-74
2022/10/30 09:14:44;;;;;;;1999.90;999.90;;;;;;;17.67;94.17;100878.47;5002870;28;20029;-74
2022/10/30 09:17:10;;;;;;;1999.90;999.90;;;;;;;17.82;93.02;100884.31;5005019;28;20088;-74
2022/10/30 09:19:37;;;;;;;1999.90;999.90;;;;;;;17.91;90.25;100873.34;5002563;28;20117;-74
2022/10/30 09:22:03;;;;;;;1999.90;999.90;;;;;;;18.03;90.80;100874.78;5001335;28;20049;-74
2022/10/30 09:24:30;;;;;;;1999.90;999.90;;;;;;;18.06;88.62;100877.34;5007584;28;20040;-74
2022/10/30 09:27:01;;;;;;;1999.90;999.90;;;;;;;18.10;88.66;100881.66;5004600;28;20084;-74
2022/10/30 09:29:28;;;;;;;1999.90;999.90;;;;;;;18.15;88.72;100880.56;5001801;28;20065;-74
2022/10/30 09:31:59;;;;;;;1999.90;999.90;;;;;;;18.12;89.06;100883.34;5001384;28;20409;-74
2022/10/30 09:34:29;;;;;;;1999.90;999.90;;;;;;;18.04;88.62;100881.84;4999459;28;20452;-74
2022/10/30 09:37:13;;;;;;;1999.90;999.90;;;;;;;18.00;89.17;100882.84;5000200;28;20523;-74
2022/10/30 09:39:43;;;;;;;1999.90;999.90;;;;;;;17.91;88.95;100884.91;5001740;28;20093;-74
2022/10/30 09:42:36;;;;;;;1999.90;999.90;;;;;;;17.98;89.33;100885.59;5000638;28;20456;-74
2022/10/30 09:45:33;;;;;;;1999.90;999.90;;;;;;;18.02;89.53;100889.03;5009278;28;20026;-74
2022/10/30 09:48:33;;;;;;;1999.90;999.90;;;;;;;18.10;88.85;100892.34;5006790;28;20120;-74
2022/10/30 09:51:36;;;;;;;1999.90;999.90;;;;;;;18.25;86.73;100894.53;4999278;28;20042;-74
2022/10/30 09:54:19;;;;;;;1999.90;999.90;;;;;;;18.38;86.42;100887.00;5004117;28;20220;-74
2022/10/30 09:56:54;;;;;;;1999.90;999.90;;;;;;;18.52;87.80;100886.53;5055841;22;20049;-75
2022/10/30 10:00:01;;;;;;;1999.90;999.90;;;;;;;18.70;86.77;100896.59;5041723;28;20115;-75
2022/10/30 10:02:34;;;;;;;1999.90;999.90;;;;;;;18.76;87.06;100891.09;5004679;28;20061;-75
2022/10/30 10:05:19;;;;;;;1999.90;999.90;;;;;;;18.73;86.08;100898.28;5041037;28;20036;-75
2022/10/30 10:08:17;;;;;;;1999.90;999.90;;;;;;;18.72;86.14;100899.22;5020107;28;20042;-75
2022/10/30 10:11:18;;;;;;;1999.90;999.90;;;;;;;18.70;86.41;100895.72;5019665;28;20515;-75
2022/10/30 10:13:52;;;;;;;1999.90;999.90;;;;;;;18.68;86.63;100893.13;5021492;28;20030;-75
2022/10/30 10:16:27;;;;;;;1999.90;999.90;;;;;;;18.67;87.00;100894.03;5015652;28;20088;-75
2022/10/30 10:19:10;;;;;;;1999.90;999.90;;;;;;;18.67;87.11;100890.50;5021134;28;20048;-75
2022/10/30 10:21:44;;;;;;;1999.90;999.90;;;;;;;18.70;87.83;100896.59;5020248;28;20052;-75
2022/10/30 10:24:23;;;;;;;1999.90;999.90;;;;;;;18.79;87.68;100896.31;5021549;28;20120;-75
2022/10/30 10:26:56;;;;;;;1999.90;999.90;;;;;;;18.96;87.22;100900.22;5020124;28;20033;-75
2022/10/30 10:29:37;;;;;;;1999.90;999.90;;;;;;;19.10;86.88;100897.03;5021496;28;20037;-75
2022/10/30 10:32:34;;;;;;;1999.90;999.90;;;;;;;19.17;86.92;100895.91;5034299;28;20049;-75
2022/10/30 10:35:23;;;;;;;1999.90;999.90;;;;;;;19.26;85.87;100900.94;5021190;28;20084;-75
2022/10/30 10:38:11;;;;;;;1999.90;999.90;;;;;;;19.40;85.75;100887.03;5020399;28;20117;-75
2022/10/30 10:40:59;;;;;;;1999.90;999.90;;;;;;;19.57;85.29;100884.63;5021527;28;20102;-75
2022/10/30 10:43:53;;;;;;;1999.90;999.90;;;;;;;19.77;84.13;100877.63;5017491;28;20040;-75
2022/10/30 10:46:48;;;;;;;1999.90;999.90;;;;;;;19.91;83.92;100873.50;5019504;28;20125;-75
2022/10/30 10:49:51;;;;;;;1999.90;999.90;;;;;;;20.07;82.90;100873.75;5022806;28;20041;-75
2022/10/30 10:52:22;;;;;;;1999.90;999.90;;;;;;;20.19;81.33;100866.16;5001081;28;20035;-75
2022/10/30 10:54:56;;;;;;;1999.90;999.90;;;;;;;20.31;80.93;100861.16;5020855;28;20041;-75
2022/10/30 10:57:27;;;;;;;1999.90;999.90;;;;;;;20.55;78.36;100858.44;5019459;28;20064;-75
2022/10/30 11:00:02;;;;;;;1999.90;999.90;;;;;;;20.78;77.03;100855.63;5021609;28;20041;-75
2022/10/30 11:03:06;;;;;;;1999.90;999.90;;;;;;;21.00;73.21;100866.28;5018358;28;20076;-75